Time;durP1;ratioP1;P1;durP2;ratioP2;P2;SDS_P1;SDS_P2;PMS_P1;PMS_P2;Temp;Humidity;BMP_temperature;BMP_pressure;BME280_temperature;BME280_humidity;BME280_pressure;Samples;Min_cycle;Max_cycle;Signal;HPM_P1;HPM_P2
2022/06/06 14:40:39;;;;;;;1.60;1.00;;;;;;;28.47;32.41;100895.73;1769940;79;22723;-89
2022/06/06 14:43:07;;;;;;;3.15;0.80;;;;;;;28.50;32.56;100895.55;1724107;83;21077;-89
2022/06/06 14:45:38;;;;;;;2.00;0.90;;;;;;;28.42;31.81;100890.50;1727097;83;21130;-92
2022/06/06 14:48:15;;;;;;;2.62;0.95;;;;;;;28.47;32.08;100889.36;1727131;82;21019;-88
2022/06/06 14:51:02;;;;;;;2.27;0.78;;;;;;;28.53;32.73;100898.39;1694501;84;21112;-87
2022/06/06 14:53:51;;;;;;;4.12;0.90;;;;;;;28.57;32.11;100897.64;1694579;83;21726;-87
2022/06/06 14:56:28;;;;;;;8.98;1.05;;;;;;;28.47;32.63;100897.13;1694422;84;21136;-90
2022/06/06 14:59:16;;;;;;;3.80;0.80;;;;;;;28.29;32.31;100892.64;1694114;84;21337;-85
2022/06/06 15:01:49;;;;;;;4.03;1.10;;;;;;;28.21;32.20;100891.55;1694486;84;21003;-86
2022/06/06 15:04:28;;;;;;;2.83;0.70;;;;;;;28.00;31.68;100895.59;1692041;84;21038;-90
2022/06/06 15:06:58;;;;;;;2.75;0.72;;;;;;;27.78;31.87;100901.34;1694442;84;21038;-91
2022/06/06 15:09:36;;;;;;;3.42;0.75;;;;;;;27.68;32.34;100903.33;1664810;85;21120;-86
2022/06/06 15:12:03;;;;;;;4.55;0.80;;;;;;;27.89;33.63;100900.74;1664796;85;22007;-89
2022/06/06 15:14:33;;;;;;;2.83;0.90;;;;;;;28.05;32.54;100901.39;1664516;86;21088;-86
2022/06/06 15:17:03;;;;;;;2.40;0.70;;;;;;;27.99;32.23;100909.80;1664710;85;21041;-87
2022/06/06 15:19:46;;;;;;;1.87;0.80;;;;;;;27.91;32.65;100908.88;1664536;86;21274;-88
2022/06/06 15:22:28;;;;;;;4.90;0.90;;;;;;;27.91;32.20;100913.62;1664605;86;21029;-91
2022/06/06 15:24:56;;;;;;;1.32;0.90;;;;;;;28.00;32.85;100916.94;1663881;86;21100;-87
2022/06/06 15:27:55;;;;;;;1.22;0.80;;;;;;;28.01;32.02;100919.94;1664444;86;21148;-88
2022/06/06 15:30:33;;;;;;;2.90;1.00;;;;;;;27.89;31.96;100915.98;1613987;88;21076;-89
2022/06/06 15:33:25;;;;;;;2.45;0.65;;;;;;;27.80;31.90;100921.17;1612622;88;21066;-89
2022/06/06 15:36:32;;;;;;;5.70;0.88;;;;;;;27.80;32.34;100923.95;1611661;88;21073;-86
2022/06/06 15:39:21;;;;;;;1.98;0.98;;;;;;;27.80;32.77;100919.79;1613961;88;21845;-88
2022/06/06 15:41:53;;;;;;;6.35;1.10;;;;;;;27.74;32.25;100925.39;1612596;87;21073;-90
2022/06/06 15:45:02;;;;;;;4.17;0.88;;;;;;;27.60;32.68;100925.93;1608474;88;21038;-87
2022/06/06 15:47:39;;;;;;;5.30;1.10;;;;;;;27.64;32.91;100929.55;1610762;87;21114;-88
2022/06/06 15:50:28;;;;;;;2.58;0.90;;;;;;;27.69;33.23;100935.97;1613236;87;21100;-89
2022/06/06 15:53:33;;;;;;;1.90;1.10;;;;;;;27.74;32.58;100928.16;1609915;88;21815;-88
2022/06/06 15:56:14;;;;;;;1.45;0.80;;;;;;;27.74;33.11;100942.60;1609726;87;21627;-89
2022/06/06 15:59:02;;;;;;;1.55;0.90;;;;;;;27.76;32.58;100935.50;1612973;87;21126;-89
2022/06/06 16:02:17;;;;;;;1.15;0.90;;;;;;;27.75;32.55;100929.75;1608895;88;21198;-89
2022/06/06 16:04:57;;;;;;;2.30;0.80;;;;;;;27.78;32.58;100937.91;1621643;87;20963;-88
2022/06/06 16:07:50;;;;;;;5.70;1.02;;;;;;;27.79;33.35;100945.08;1678940;85;21617;-91
2022/06/06 16:10:30;;;;;;;3.17;1.00;;;;;;;27.75;33.36;100945.58;1680541;85;21092;-89
2022/06/06 16:13:19;;;;;;;3.67;1.20;;;;;;;27.66;33.71;100944.42;1682634;85;21052;-82
2022/06/06 16:16:16;;;;;;;2.55;1.15;;;;;;;27.53;33.74;100941.04;1682547;85;21132;-89
2022/06/06 16:19:02;;;;;;;6.70;1.25;;;;;;;27.42;33.53;100939.23;1682100;85;21151;-90
2022/06/06 16:21:39;;;;;;;5.30;1.72;;;;;;;27.30;33.94;100940.20;1678085;85;21201;-94
2022/06/06 16:24:16;;;;;;;4.42;1.50;;;;;;;27.26;34.24;100948.41;1574276;89;21586;-89
2022/06/06 16:26:48;;;;;;;5.00;1.17;;;;;;;27.17;34.00;100943.09;1603190;89;21576;-89
2022/06/06 16:29:20;;;;;;;3.67;1.10;;;;;;;27.09;34.32;100946.87;1591988;90;21106;-91
2022/06/06 16:31:52;;;;;;;4.20;1.12;;;;;;;27.02;34.67;100950.05;1547995;91;21140;-91
2022/06/06 16:34:37;;;;;;;5.78;1.25;;;;;;;26.94;34.95;100947.70;1500191;95;21615;-90
2022/06/06 16:37:12;;;;;;;3.05;0.90;;;;;;;26.86;34.96;100949.53;1481802;95;21249;-90
2022/06/06 16:39:54;;;;;;;3.50;0.95;;;;;;;26.74;34.89;100945.52;1435072;98;21148;-89
2022/06/06 16:48:52;;;;;;;2.95;1.30;;;;;;;26.35;35.80;100941.81;1429572;99;22644;-90
2022/06/06 16:54:30;;;;;;;5.22;1.65;;;;;;;26.08;36.74;100951.81;1362597;103;21214;-89
2022/06/06 16:57:18;;;;;;;5.17;1.70;;;;;;;25.95;36.66;100950.52;1369724;104;21111;-88
2022/06/06 16:59:55;;;;;;;7.53;1.82;;;;;;;25.79;37.06;100949.66;1346077;103;21157;-89
2022/06/06 17:02:38;;;;;;;4.50;1.87;;;;;;;25.66;38.31;100945.39;1345917;106;21237;-89
2022/06/06 17:08:28;;;;;;;7.65;2.15;;;;;;;25.43;39.39;100947.91;1309026;109;21755;-89
2022/06/06 17:11:16;;;;;;;23.15;2.30;;;;;;;25.20;39.63;100945.70;1310578;108;21190;-89
2022/06/06 17:13:48;;;;;;;5.40;2.00;;;;;;;25.00;41.39;100939.20;1297977;106;21255;-89
2022/06/06 17:16:39;;;;;;;9.95;1.45;;;;;;;24.78;41.61;100944.64;1298158;110;21214;-89
2022/06/06 17:19:16;;;;;;;8.08;1.82;;;;;;;24.58;41.77;100946.39;1297880;107;21719;-90
2022/06/06 17:21:48;;;;;;;6.40;1.80;;;;;;;24.36;42.64;100946.27;1316580;108;21070;-89
2022/06/06 17:24:40;;;;;;;9.13;1.77;;;;;;;24.20;44.06;100948.89;1313111;109;21807;-91
2022/06/06 17:27:32;;;;;;;9.33;2.55;;;;;;;24.05;43.94;100946.81;1312876;109;21310;-92
2022/06/06 17:30:16;;;;;;;10.35;2.80;;;;;;;23.88;44.24;100957.45;1306515;108;21861;-92
2022/06/06 17:32:59;;;;;;;;;;;;;;;23.66;44.36;100956.47;1336699;106;21242;-92
2022/06/06 17:35:44;;;;;;;7.40;3.12;;;;;;;23.48;45.37;100965.47;1334589;106;20256;-92
2022/06/06 17:38:19;;;;;;;8.93;2.87;;;;;;;23.28;45.47;100976.72;1351858;105;21131;-91
2022/06/06 17:40:50;;;;;;;10.93;3.27;;;;;;;23.10;46.16;100977.44;1340711;105;21128;-91
2022/06/06 17:43:28;;;;;;;8.00;2.92;;;;;;;22.91;46.55;100972.34;1408060;101;21257;-91
2022/06/06 17:46:14;;;;;;;12.63;3.22;;;;;;;22.75;47.37;100978.21;1414272;101;21794;-92
2022/06/06 17:49:04;;;;;;;9.33;2.95;;;;;;;22.60;48.33;100979.02;1414359;101;21133;-92
2022/06/06 17:51:47;;;;;;;9.33;3.33;;;;;;;22.46;50.28;100979.81;1480534;95;21117;-91
2022/06/06 17:54:41;;;;;;;6.95;2.95;;;;;;;22.30;51.83;100977.41;1505185;95;21110;-92
2022/06/06 17:57:35;;;;;;;8.05;3.35;;;;;;;22.15;54.14;100978.16;1505291;95;21237;-92
2022/06/06 18:00:21;;;;;;;8.50;3.12;;;;;;;21.98;60.13;100983.70;1480680;96;21167;-91
2022/06/06 18:03:22;;;;;;;5.87;2.60;;;;;;;21.83;60.62;100982.28;1483504;96;21096;-92
2022/06/06 18:06:21;;;;;;;9.73;3.15;;;;;;;21.66;60.21;100983.11;1483488;96;21172;-92
2022/06/06 18:08:55;;;;;;;14.15;3.40;;;;;;;21.54;61.51;100988.45;1483777;96;21180;-91
2022/06/06 18:11:56;;;;;;;6.40;2.50;;;;;;;21.39;63.55;100986.22;1483784;96;21227;-91
2022/06/06 18:14:39;;;;;;;7.67;3.22;;;;;;;21.26;65.82;100990.11;1484724;95;21119;-89
2022/06/06 18:17:26;;;;;;;;;;;;;;;21.14;67.04;100996.80;1488172;92;21078;-89
2022/06/06 18:19:57;;;;;;;10.45;2.77;;;;;;;21.01;67.19;100997.20;1554865;92;20455;-89
2022/06/06 18:22:28;;;;;;;20.25;4.55;;;;;;;20.83;64.50;100993.63;1564960;91;21077;-89
2022/06/06 18:24:58;;;;;;;26.25;7.80;;;;;;;20.73;64.83;101005.44;1565813;91;21792;-91
2022/06/06 18:27:30;;;;;;;36.13;11.03;;;;;;;20.64;65.16;100999.92;1565598;91;21023;-88
2022/06/06 18:30:08;;;;;;;57.08;17.15;;;;;;;20.55;65.18;100996.36;1565300;91;21086;-90
2022/06/06 18:32:38;;;;;;;72.50;18.52;;;;;;;20.46;65.14;100999.03;1565746;91;21062;-88
2022/06/06 18:35:23;;;;;;;123.02;29.15;;;;;;;20.32;66.55;101000.50;1565370;91;21122;-89
2022/06/06 18:38:19;;;;;;;56.63;16.35;;;;;;;20.23;68.61;101008.44;1565236;91;21172;-89
2022/06/06 18:40:48;;;;;;;71.72;19.65;;;;;;;20.13;67.52;101005.42;1565293;91;21126;-89
2022/06/06 18:43:25;;;;;;;68.07;18.85;;;;;;;20.05;66.71;101002.87;1565490;91;21059;-89
2022/06/06 18:45:55;;;;;;;63.87;17.35;;;;;;;19.99;67.82;101003.32;1562625;91;21099;-90
2022/06/06 18:48:23;;;;;;;69.90;17.30;;;;;;;19.91;72.04;101008.44;1561148;91;21114;-89
2022/06/06 18:50:58;;;;;;;54.20;14.05;;;;;;;19.81;75.62;101013.35;1558387;91;21418;-89
2022/06/06 18:53:51;;;;;;;52.10;13.93;;;;;;;19.70;74.62;101009.48;1561369;91;21573;-89
2022/06/06 18:56:33;;;;;;;33.33;10.32;;;;;;;19.64;79.65;101010.70;1555686;91;21100;-90
2022/06/06 18:59:04;;;;;;;29.05;9.28;;;;;;;19.56;75.74;101009.27;1548707;92;21067;-89
2022/06/06 19:01:44;;;;;;;32.15;8.30;;;;;;;19.49;76.27;101014.61;1548468;92;21095;-90
2022/06/06 19:07:17;;;;;;;28.65;7.92;;;;;;;19.39;74.39;101015.42;1560431;92;21020;-88
2022/06/06 19:10:00;;;;;;;28.25;6.97;;;;;;;19.31;76.00;101010.13;1530062;93;21070;-89
2022/06/06 19:12:35;;;;;;;25.23;6.97;;;;;;;19.21;76.17;101019.93;1462541;96;21132;-88
2022/06/06 19:15:22;;;;;;;16.57;5.47;;;;;;;19.11;78.22;101015.48;1459904;98;21167;-89
2022/06/06 19:17:52;;;;;;;13.95;4.50;;;;;;;19.04;81.31;101017.83;1438164;99;21029;-88
2022/06/06 19:20:26;;;;;;;21.10;5.33;;;;;;;18.96;85.79;101013.09;1454200;98;21189;-89
2022/06/06 19:22:57;;;;;;;17.70;5.97;;;;;;;18.85;83.80;101020.67;1483644;96;21142;-88
2022/06/06 19:25:24;;;;;;;17.77;5.85;;;;;;;18.72;81.64;101019.55;1484011;96;21679;-87
2022/06/06 19:28:08;;;;;;;19.20;5.58;;;;;;;18.63;82.76;101017.28;1483993;96;21117;-89
2022/06/06 19:30:34;;;;;;;11.88;4.22;;;;;;;18.52;81.98;101020.76;1484128;96;21247;-88
2022/06/06 19:33:24;;;;;;;13.48;5.00;;;;;;;18.43;83.41;101021.20;1484013;96;21071;-87
2022/06/06 19:36:04;;;;;;;25.12;5.37;;;;;;;18.34;88.34;101014.27;1489749;95;21066;-88
2022/06/06 19:38:30;;;;;;;20.30;5.50;;;;;;;18.23;90.63;101015.56;1487108;96;21118;-88
2022/06/06 19:40:59;;;;;;;13.13;5.00;;;;;;;18.10;93.75;101016.37;1486891;96;21149;-88
2022/06/06 19:43:31;;;;;;;17.98;5.22;;;;;;;18.01;98.07;101018.17;1484096;96;21626;-88
2022/06/06 19:46:03;;;;;;;24.75;6.25;;;;;;;17.92;100.00;101015.31;1456235;97;21437;-89
2022/06/06 19:48:46;;;;;;;22.27;6.05;;;;;;;17.82;100.00;101015.47;1461239;97;21074;-89
2022/06/06 19:51:29;;;;;;;14.70;5.33;;;;;;;17.76;100.00;101019.36;1478001;97;21606;-88
2022/06/06 19:54:00;;;;;;;16.00;5.25;;;;;;;17.67;100.00;101021.95;1472618;96;21241;-86
2022/06/06 19:56:43;;;;;;;12.20;4.45;;;;;;;17.54;100.00;101028.97;1488239;96;21226;-88
2022/06/06 19:59:17;;;;;;;16.13;4.30;;;;;;;17.41;100.00;101029.70;1488636;96;21129;-88
2022/06/06 20:01:44;;;;;;;18.52;5.28;;;;;;;17.37;100.00;101027.32;1488354;96;21452;-88
2022/06/06 20:04:21;;;;;;;12.58;4.70;;;;;;;17.33;100.00;101031.19;1519927;93;21127;-87
2022/06/06 20:06:54;;;;;;;15.55;5.20;;;;;;;17.30;100.00;101034.51;1523392;90;21138;-88
2022/06/06 20:09:31;;;;;;;10.78;4.20;;;;;;;17.15;100.00;101019.74;1537693;92;21197;-87
2022/06/06 20:12:08;;;;;;;14.33;4.95;;;;;;;17.15;100.00;101038.81;1537916;93;21076;-88
2022/06/06 20:14:45;;;;;;;12.75;4.00;;;;;;;17.03;100.00;101031.06;1537702;92;21795;-88
2022/06/06 20:17:22;;;;;;;17.10;3.90;;;;;;;16.91;100.00;101041.55;1529883;92;21720;-89
2022/06/06 20:20:05;;;;;;;11.18;3.52;;;;;;;16.80;100.00;101038.16;1530255;92;21058;-89
2022/06/06 20:22:31;;;;;;;13.03;4.45;;;;;;;16.60;100.00;101024.20;1507025;95;21133;-88
2022/06/06 20:25:07;;;;;;;10.80;3.80;;;;;;;16.58;100.00;101033.19;1508213;95;21099;-88
2022/06/06 20:27:47;;;;;;;12.28;3.98;;;;;;;16.52;100.00;101032.42;1507943;95;21123;-88
2022/06/06 20:32:10;;;;;;;11.05;3.47;;;;;;;16.30;100.00;101025.34;1456608;98;21118;-89
2022/06/06 20:33:22;;;;;;;11.48;3.75;;;;;;;16.30;100.00;101025.34;1481948;95;21154;-89
2022/06/06 20:36:06;;;;;;;14.13;3.50;;;;;;;16.30;100.00;101043.83;1478847;97;22193;-89
2022/06/06 20:38:57;;;;;;;11.38;3.90;;;;;;;16.23;100.00;101044.69;1479127;97;21582;-88
2022/06/06 20:41:29;;;;;;;14.03;3.65;;;;;;;16.16;100.00;101052.94;1478966;96;21607;-88
2022/06/06 20:43:59;;;;;;;8.10;3.08;;;;;;;16.11;100.00;101045.62;1436465;98;21168;-89
2022/06/06 20:46:29;;;;;;;8.18;2.98;;;;;;;16.08;100.00;101055.72;1400345;102;21164;-89
2022/06/06 20:48:57;;;;;;;8.53;3.60;;;;;;;16.01;100.00;101061.48;1423151;100;21639;-89
2022/06/06 20:51:31;;;;;;;9.08;2.87;;;;;;;15.91;100.00;101065.62;1443607;99;21102;-89
2022/06/06 20:54:03;;;;;;;10.80;3.33;;;;;;;15.82;100.00;101066.78;1444307;97;21102;-89
2022/06/06 20:56:39;;;;;;;7.97;3.05;;;;;;;15.77;100.00;101065.48;1483728;96;21094;-89
2022/06/06 20:59:22;;;;;;;10.50;2.90;;;;;;;15.62;100.00;101053.34;1483916;96;21154;-89
2022/06/06 21:01:50;;;;;;;5.97;2.83;;;;;;;15.69;100.00;101065.27;1483658;96;21293;-89
2022/06/06 21:04:17;;;;;;;8.90;3.42;;;;;;;15.65;100.00;101064.45;1483855;96;21155;-88
2022/06/06 21:06:44;;;;;;;7.33;3.05;;;;;;;15.55;100.00;101048.75;1454422;96;21108;-89
2022/06/06 21:09:25;;;;;;;6.90;2.58;;;;;;;15.58;100.00;101063.94;1448729;96;21119;-88
2022/06/06 21:11:56;;;;;;;7.37;2.83;;;;;;;15.51;100.00;101055.85;1517668;93;21609;-89
2022/06/06 21:14:23;;;;;;;9.00;2.87;;;;;;;15.43;100.00;101062.12;1517648;94;22236;-89
2022/06/06 21:16:49;;;;;;;6.37;2.47;;;;;;;15.41;100.00;101057.54;1517892;94;21127;-89
2022/06/06 21:19:17;;;;;;;8.03;3.20;;;;;;;15.37;100.00;101048.31;1498257;91;20986;-89
2022/06/06 21:21:51;;;;;;;9.30;3.00;;;;;;;15.34;100.00;101051.59;1596973;88;21134;-89
2022/06/06 21:24:21;;;;;;;6.92;2.90;;;;;;;15.31;100.00;101050.80;1617119;88;21160;-88
2022/06/06 21:26:48;;;;;;;9.58;2.75;;;;;;;15.28;100.00;101058.69;1637645;85;21173;-89
2022/06/06 21:29:14;;;;;;;5.70;2.60;;;;;;;15.25;100.00;101051.91;1670748;85;21527;-88
2022/06/06 21:31:41;;;;;;;6.15;2.65;;;;;;;15.18;100.00;101054.14;1670461;85;21122;-88
2022/06/06 21:34:06;;;;;;;8.13;2.55;;;;;;;15.14;100.00;101057.13;1670627;85;21630;-88
2022/06/06 21:36:33;;;;;;;5.37;2.40;;;;;;;15.09;100.00;101055.78;1670955;85;20909;-89
2022/06/06 21:38:59;;;;;;;8.03;2.67;;;;;;;14.99;100.00;101049.31;1670848;85;21890;-88
2022/06/06 21:41:25;;;;;;;7.87;2.60;;;;;;;14.98;100.00;101051.77;1673760;85;20904;-89
2022/06/06 21:43:52;;;;;;;8.88;3.30;;;;;;;14.95;100.00;101050.16;1675953;85;21585;-88
2022/06/06 21:46:18;;;;;;;6.75;2.72;;;;;;;14.96;100.00;101056.66;1675597;85;21554;-88
2022/06/06 21:48:44;;;;;;;7.37;3.52;;;;;;;14.93;100.00;101053.69;1658403;84;21061;-88
2022/06/06 21:53:57;;;;;;;8.13;3.52;;;;;;;14.87;100.00;101064.30;1703126;83;21060;-89
2022/06/06 21:56:25;;;;;;;10.55;3.80;;;;;;;14.85;100.00;101063.76;1713034;83;21002;-88
2022/06/06 21:58:53;;;;;;;7.12;3.58;;;;;;;14.84;100.00;101060.23;1713320;83;21538;-88
2022/06/06 22:01:19;;;;;;;9.93;3.42;;;;;;;14.82;100.00;101062.95;1713111;83;21077;-89
2022/06/06 22:03:45;;;;;;;8.48;3.98;;;;;;;14.76;100.00;101064.34;1713278;83;21931;-89
2022/06/06 22:06:11;;;;;;;8.80;3.75;;;;;;;14.66;100.00;101067.08;1713040;83;21041;-89
2022/06/06 22:08:37;;;;;;;9.20;3.83;;;;;;;14.64;100.00;101063.81;1713472;83;20910;-90
2022/06/06 22:11:06;;;;;;;13.95;4.03;;;;;;;14.58;100.00;101055.42;1713393;83;21089;-90
2022/06/06 22:13:32;;;;;;;13.00;4.60;;;;;;;14.59;100.00;101061.66;1713169;83;21018;-91
2022/06/06 22:15:58;;;;;;;16.12;4.30;;;;;;;14.59;100.00;101059.78;1713267;83;21146;-88
2022/06/06 22:18:24;;;;;;;12.82;4.75;;;;;;;14.62;100.00;101065.17;1713215;83;21755;-88
2022/06/06 22:20:50;;;;;;;12.20;4.50;;;;;;;14.63;100.00;101060.03;1713269;83;20958;-88
2022/06/06 22:23:19;;;;;;;15.85;5.45;;;;;;;14.62;100.00;101058.39;1685545;83;21010;-90
2022/06/06 22:25:45;;;;;;;13.58;4.83;;;;;;;14.61;100.00;101055.42;1713118;83;21530;-88
2022/06/06 22:28:12;;;;;;;16.05;5.10;;;;;;;14.63;100.00;101060.03;1713002;83;21143;-88
2022/06/06 22:30:38;;;;;;;11.68;4.85;;;;;;;14.62;100.00;101059.23;1715856;83;21027;-88
2022/06/06 22:33:05;;;;;;;16.30;5.17;;;;;;;14.59;100.00;101055.72;1721710;82;21051;-89
2022/06/06 22:35:31;;;;;;;15.40;5.53;;;;;;;14.61;100.00;101054.88;1721622;82;21171;-89
2022/06/06 22:38:04;;;;;;;14.65;4.90;;;;;;;14.63;100.00;101059.48;1721732;83;21056;-89
2022/06/06 22:40:31;;;;;;;12.70;4.70;;;;;;;14.68;100.00;101054.61;1722493;82;21065;-89
2022/06/06 22:42:57;;;;;;;12.15;4.65;;;;;;;14.71;100.00;101057.57;1726735;82;21102;-88
2022/06/06 22:45:23;;;;;;;10.20;4.37;;;;;;;14.75;100.00;101050.49;1726806;83;21484;-89
2022/06/06 22:47:49;;;;;;;15.45;5.62;;;;;;;14.79;100.00;101048.03;1726901;82;21586;-89
2022/06/06 22:50:15;;;;;;;13.22;5.35;;;;;;;14.82;100.00;101050.19;1726768;81;21023;-88
2022/06/06 22:52:42;;;;;;;14.83;5.45;;;;;;;14.84;100.00;101045.31;1727019;83;21076;-90
2022/06/06 22:55:08;;;;;;;16.35;6.03;;;;;;;14.87;100.00;101054.80;1726687;82;21043;-88
2022/06/06 22:57:34;;;;;;;17.95;6.28;;;;;;;14.86;100.00;101059.42;1726774;82;21066;-89
2022/06/06 23:00:00;;;;;;;17.42;7.28;;;;;;;14.84;100.00;101056.16;1726797;83;20996;-88
2022/06/06 23:02:26;;;;;;;18.35;6.45;;;;;;;14.84;100.00;101058.07;1727182;83;21471;-88
2022/06/06 23:04:52;;;;;;;16.67;6.15;;;;;;;14.80;100.00;101057.02;1727242;83;21141;-89
2022/06/06 23:07:18;;;;;;;17.87;6.50;;;;;;;14.80;100.00;101055.66;1726977;83;20959;-89
2022/06/06 23:09:44;;;;;;;23.05;7.37;;;;;;;14.74;100.00;101052.95;1726904;83;20860;-89
2022/06/06 23:12:11;;;;;;;19.02;7.35;;;;;;;14.69;100.00;101054.31;1726817;81;20907;-89
2022/06/06 23:14:37;;;;;;;18.42;6.53;;;;;;;14.69;100.00;101050.80;1726996;82;21000;-89
2022/06/06 23:17:03;;;;;;;17.25;7.30;;;;;;;14.69;100.00;101052.15;1710695;83;21231;-89
2022/06/06 23:19:29;;;;;;;11.90;6.25;;;;;;;14.66;100.00;101058.13;1727030;82;20988;-90
2022/06/06 23:21:59;;;;;;;14.18;6.10;;;;;;;14.60;100.00;101060.04;1727022;82;21480;-89
2022/06/06 23:24:28;;;;;;;15.30;5.97;;;;;;;14.51;100.00;101063.86;1726905;82;21071;-89
2022/06/06 23:26:56;;;;;;;11.83;5.20;;;;;;;14.44;100.00;101063.83;1680321;85;21496;-89
2022/06/06 23:29:22;;;;;;;14.25;6.10;;;;;;;14.33;100.00;101058.98;1680414;85;21960;-90
2022/06/06 23:31:48;;;;;;;14.28;5.50;;;;;;;14.31;100.00;101057.89;1681011;85;21001;-90
2022/06/06 23:34:15;;;;;;;10.80;4.72;;;;;;;14.27;100.00;101060.89;1680658;85;21055;-90
2022/06/06 23:36:52;;;;;;;10.78;4.40;;;;;;;14.24;100.00;101065.50;1680712;85;21040;-90
